sensor_id;sensor_type;location;lat;lon;timestamp;pressure;altitude;pressure_sealevel;temperature;humidity
45763;BME280;37512;52.408;13.356;2022-09-06T00:00:24;101691.59;;;15.67;53.61
45763;BME280;37512;52.408;13.356;2022-09-06T00:04:26;101696.91;;;15.72;54.17
45763;BME280;37512;52.408;13.356;2022-09-06T00:08:28;101694.13;;;15.76;53.59
45763;BME280;37512;52.408;13.356;2022-09-06T00:12:30;101686.59;;;15.80;53.65
45763;BME280;37512;52.408;13.356;2022-09-06T00:16:31;101688.56;;;15.53;53.94
45763;BME280;37512;52.408;13.356;2022-09-06T00:20:33;101686.81;;;15.67;53.21
45763;BME280;37512;52.408;13.356;2022-09-06T00:24:35;101675.41;;;15.53;53.35
45763;BME280;37512;52.408;13.356;2022-09-06T00:28:38;101670.53;;;15.50;53.42
45763;BME280;37512;52.408;13.356;2022-09-06T00:32:39;101677.69;;;15.47;52.71
45763;BME280;37512;52.408;13.356;2022-09-06T00:36:41;101673.50;;;15.61;53.36
45763;BME280;37512;52.408;13.356;2022-09-06T00:40:42;101681.25;;;15.44;53.54
45763;BME280;37512;52.408;13.356;2022-09-06T00:44:44;101676.09;;;15.46;52.58
45763;BME280;37512;52.408;13.356;2022-09-06T00:48:47;101676.91;;;15.47;52.58
45763;BME280;37512;52.408;13.356;2022-09-06T00:52:51;101674.28;;;15.35;53.03
45763;BME280;37512;52.408;13.356;2022-09-06T00:56:53;101672.69;;;15.34;53.04
45763;BME280;37512;52.408;13.356;2022-09-06T01:00:55;101671.44;;;15.31;52.64
45763;BME280;37512;52.408;13.356;2022-09-06T01:04:57;101679.75;;;15.27;52.41
45763;BME280;37512;52.408;13.356;2022-09-06T01:09:09;101676.78;;;15.40;52.61
45763;BME280;37512;52.408;13.356;2022-09-06T01:13:34;101668.22;;;15.29;52.66
45763;BME280;37512;52.408;13.356;2022-09-06T01:18:00;101675.69;;;15.21;52.70
45763;BME280;37512;52.408;13.356;2022-09-06T01:22:40;101680.59;;;15.28;52.36
45763;BME280;37512;52.408;13.356;2022-09-06T01:31:31;101676.72;;;15.13;53.39
45763;BME280;37512;52.408;13.356;2022-09-06T01:35:43;101675.41;;;15.07;53.63
45763;BME280;37512;52.408;13.356;2022-09-06T01:39:48;101669.03;;;14.83;54.09
45763;BME280;37512;52.408;13.356;2022-09-06T01:43:50;101659.06;;;14.63;54.77
45763;BME280;37512;52.408;13.356;2022-09-06T01:48:10;101651.34;;;14.56;54.73
45763;BME280;37512;52.408;13.356;2022-09-06T02:01:03;101666.38;;;14.52;54.96
45763;BME280;37512;52.408;13.356;2022-09-06T02:05:24;101665.66;;;14.55;54.89
45763;BME280;37512;52.408;13.356;2022-09-06T02:09:32;101660.53;;;14.57;55.03
45763;BME280;37512;52.408;13.356;2022-09-06T02:13:48;101652.72;;;14.47;55.12
45763;BME280;37512;52.408;13.356;2022-09-06T02:18:17;101656.84;;;14.33;56.26
45763;BME280;37512;52.408;13.356;2022-09-06T02:22:20;101649.22;;;14.30;55.75
45763;BME280;37512;52.408;13.356;2022-09-06T02:26:25;101649.88;;;14.23;55.76
45763;BME280;37512;52.408;13.356;2022-09-06T02:30:27;101643.03;;;14.40;55.79
45763;BME280;37512;52.408;13.356;2022-09-06T02:34:29;101649.66;;;14.32;55.92
45763;BME280;37512;52.408;13.356;2022-09-06T02:38:34;101660.22;;;14.23;56.25
45763;BME280;37512;52.408;13.356;2022-09-06T02:42:40;101643.34;;;14.35;56.16
45763;BME280;37512;52.408;13.356;2022-09-06T02:46:42;101642.97;;;14.37;56.04
45763;BME280;37512;52.408;13.356;2022-09-06T02:50:43;101647.38;;;14.38;56.11
45763;BME280;37512;52.408;13.356;2022-09-06T02:54:45;101635.75;;;14.36;56.21
45763;BME280;37512;52.408;13.356;2022-09-06T02:58:46;101643.53;;;14.46;56.06
45763;BME280;37512;52.408;13.356;2022-09-06T03:02:47;101638.63;;;14.20;56.21
45763;BME280;37512;52.408;13.356;2022-09-06T03:06:49;101645.16;;;14.28;56.49
45763;BME280;37512;52.408;13.356;2022-09-06T03:10:54;101651.72;;;14.35;56.56
45763;BME280;37512;52.408;13.356;2022-09-06T03:14:56;101644.78;;;14.29;56.56
45763;BME280;37512;52.408;13.356;2022-09-06T03:18:58;101645.69;;;14.33;56.78
45763;BME280;37512;52.408;13.356;2022-09-06T03:22:59;101645.09;;;14.24;57.13
45763;BME280;37512;52.408;13.356;2022-09-06T03:27:00;101639.44;;;14.20;57.86
45763;BME280;37512;52.408;13.356;2022-09-06T03:31:02;101632.47;;;14.30;57.78
45763;BME280;37512;52.408;13.356;2022-09-06T03:35:04;101640.53;;;14.35;58.07
45763;BME280;37512;52.408;13.356;2022-09-06T03:39:06;101623.91;;;14.42;58.22
45763;BME280;37512;52.408;13.356;2022-09-06T03:43:07;101632.06;;;14.32;58.87
45763;BME280;37512;52.408;13.356;2022-09-06T03:47:09;101630.56;;;14.15;59.62
45763;BME280;37512;52.408;13.356;2022-09-06T03:51:10;101631.63;;;14.30;59.61
45763;BME280;37512;52.408;13.356;2022-09-06T03:55:11;101630.75;;;14.06;60.17
45763;BME280;37512;52.408;13.356;2022-09-06T03:59:13;101630.25;;;14.00;61.12
45763;BME280;37512;52.408;13.356;2022-09-06T04:03:14;101623.63;;;13.89;61.45
45763;BME280;37512;52.408;13.356;2022-09-06T04:07:16;101614.88;;;13.91;61.84
45763;BME280;37512;52.408;13.356;2022-09-06T04:11:17;101615.47;;;13.80;61.67
45763;BME280;37512;52.408;13.356;2022-09-06T04:15:19;101616.25;;;13.62;62.66
45763;BME280;37512;52.408;13.356;2022-09-06T04:19:20;101628.09;;;13.74;62.58
45763;BME280;37512;52.408;13.356;2022-09-06T04:23:23;101624.69;;;13.65;63.27
45763;BME280;37512;52.408;13.356;2022-09-06T04:27:25;101613.72;;;13.56;63.53
45763;BME280;37512;52.408;13.356;2022-09-06T04:31:26;101618.97;;;13.58;63.63
45763;BME280;37512;52.408;13.356;2022-09-06T04:35:28;101607.66;;;13.70;63.71
45763;BME280;37512;52.408;13.356;2022-09-06T04:39:29;101603.03;;;13.58;63.85
45763;BME280;37512;52.408;13.356;2022-09-06T04:43:31;101606.00;;;13.50;64.18
45763;BME280;37512;52.408;13.356;2022-09-06T04:47:33;101605.47;;;13.60;64.15
45763;BME280;37512;52.408;13.356;2022-09-06T04:51:34;101607.16;;;13.65;64.21
45763;BME280;37512;52.408;13.356;2022-09-06T04:55:37;101604.72;;;13.63;64.76
45763;BME280;37512;52.408;13.356;2022-09-06T04:59:39;101610.31;;;13.63;64.83
45763;BME280;37512;52.408;13.356;2022-09-06T05:03:40;101601.56;;;13.65;65.27
45763;BME280;37512;52.408;13.356;2022-09-06T05:07:42;101600.47;;;13.89;64.19
45763;BME280;37512;52.408;13.356;2022-09-06T05:11:45;101597.75;;;13.73;65.11
45763;BME280;37512;52.408;13.356;2022-09-06T05:15:46;101598.34;;;13.82;64.52
45763;BME280;37512;52.408;13.356;2022-09-06T05:19:47;101591.91;;;13.78;65.32
45763;BME280;37512;52.408;13.356;2022-09-06T05:23:49;101588.38;;;13.81;65.38
45763;BME280;37512;52.408;13.356;2022-09-06T05:27:54;101600.72;;;13.80;65.76
45763;BME280;37512;52.408;13.356;2022-09-06T05:31:56;101599.63;;;13.85;65.78
45763;BME280;37512;52.408;13.356;2022-09-06T05:35:57;101602.25;;;13.97;66.08
45763;BME280;37512;52.408;13.356;2022-09-06T05:39:59;101602.63;;;13.95;65.61
45763;BME280;37512;52.408;13.356;2022-09-06T05:44:02;101601.47;;;13.96;65.80
45763;BME280;37512;52.408;13.356;2022-09-06T05:48:04;101607.31;;;14.11;65.71
45763;BME280;37512;52.408;13.356;2022-09-06T05:52:05;101612.25;;;14.17;64.80
45763;BME280;37512;52.408;13.356;2022-09-06T05:56:07;101607.69;;;14.09;64.84
45763;BME280;37512;52.408;13.356;2022-09-06T06:00:09;101599.09;;;14.18;65.20
45763;BME280;37512;52.408;13.356;2022-09-06T06:04:12;101586.81;;;14.22;65.39
45763;BME280;37512;52.408;13.356;2022-09-06T06:08:13;101569.84;;;14.31;65.18
45763;BME280;37512;52.408;13.356;2022-09-06T06:12:15;101572.84;;;14.42;63.96
45763;BME280;37512;52.408;13.356;2022-09-06T06:16:18;101578.47;;;14.46;64.42
45763;BME280;37512;52.408;13.356;2022-09-06T06:20:20;101584.06;;;14.46;63.94
45763;BME280;37512;52.408;13.356;2022-09-06T06:24:22;101595.63;;;14.25;65.59
45763;BME280;37512;52.408;13.356;2022-09-06T06:28:23;101601.63;;;14.66;63.56
45763;BME280;37512;52.408;13.356;2022-09-06T06:32:25;101599.50;;;14.59;63.73
45763;BME280;37512;52.408;13.356;2022-09-06T06:36:26;101594.81;;;14.63;62.96
45763;BME280;37512;52.408;13.356;2022-09-06T06:40:30;101592.63;;;14.76;63.82
45763;BME280;37512;52.408;13.356;2022-09-06T06:44:32;101595.44;;;14.99;63.76
45763;BME280;37512;52.408;13.356;2022-09-06T06:48:34;101585.34;;;15.17;61.93
45763;BME280;37512;52.408;13.356;2022-09-06T06:52:36;101584.53;;;15.17;63.39
45763;BME280;37512;52.408;13.356;2022-09-06T06:56:38;101580.81;;;15.36;62.26
45763;BME280;37512;52.408;13.356;2022-09-06T07:00:45;101581.56;;;15.33;62.48
45763;BME280;37512;52.408;13.356;2022-09-06T07:04:46;101563.38;;;15.46;62.00
45763;BME280;37512;52.408;13.356;2022-09-06T07:08:48;101568.25;;;15.53;60.88
45763;BME280;37512;52.408;13.356;2022-09-06T07:12:50;101572.06;;;15.67;60.27
45763;BME280;37512;52.408;13.356;2022-09-06T07:16:52;101579.38;;;15.76;60.39
45763;BME280;37512;52.408;13.356;2022-09-06T07:20:58;101592.81;;;15.93;61.84
45763;BME280;37512;52.408;13.356;2022-09-06T07:25:19;101583.28;;;15.98;60.49
45763;BME280;37512;52.408;13.356;2022-09-06T07:29:21;101589.03;;;16.12;60.28
45763;BME280;37512;52.408;13.356;2022-09-06T07:33:23;101589.28;;;16.34;61.00
45763;BME280;37512;52.408;13.356;2022-09-06T07:37:25;101585.22;;;16.27;60.41
45763;BME280;37512;52.408;13.356;2022-09-06T07:41:26;101581.63;;;16.30;60.87
45763;BME280;37512;52.408;13.356;2022-09-06T07:45:27;101584.88;;;16.73;60.67
45763;BME280;37512;52.408;13.356;2022-09-06T07:49:29;101573.09;;;16.95;60.20
45763;BME280;37512;52.408;13.356;2022-09-06T07:53:35;101574.84;;;17.17;59.76
45763;BME280;37512;52.408;13.356;2022-09-06T07:57:38;101570.91;;;17.25;58.89
45763;BME280;37512;52.408;13.356;2022-09-06T08:01:40;101575.72;;;17.28;57.66
45763;BME280;37512;52.408;13.356;2022-09-06T08:05:41;101569.22;;;17.17;59.29
45763;BME280;37512;52.408;13.356;2022-09-06T08:10:03;101576.63;;;17.43;59.84
45763;BME280;37512;52.408;13.356;2022-09-06T08:14:06;101586.72;;;17.55;58.01
45763;BME280;37512;52.408;13.356;2022-09-06T08:18:08;101591.97;;;17.60;58.43
45763;BME280;37512;52.408;13.356;2022-09-06T08:22:09;101599.53;;;17.56;58.48
45763;BME280;37512;52.408;13.356;2022-09-06T08:26:11;101594.66;;;17.42;60.07
45763;BME280;37512;52.408;13.356;2022-09-06T08:30:13;101591.50;;;17.47;60.65
45763;BME280;37512;52.408;13.356;2022-09-06T08:34:14;101601.25;;;17.71;59.23
45763;BME280;37512;52.408;13.356;2022-09-06T08:38:16;101600.16;;;17.87;59.57
45763;BME280;37512;52.408;13.356;2022-09-06T08:42:17;101579.38;;;18.06;58.13
45763;BME280;37512;52.408;13.356;2022-09-06T08:46:21;101565.75;;;18.04;58.67
45763;BME280;37512;52.408;13.356;2022-09-06T08:50:27;101572.22;;;18.23;58.78
45763;BME280;37512;52.408;13.356;2022-09-06T08:59:02;101580.38;;;18.89;56.21
45763;BME280;37512;52.408;13.356;2022-09-06T09:03:13;101563.88;;;19.12;56.91
45763;BME280;37512;52.408;13.356;2022-09-06T09:11:22;101563.38;;;18.31;58.67
45763;BME280;37512;52.408;13.356;2022-09-06T09:15:26;101557.78;;;18.49;59.65
45763;BME280;37512;52.408;13.356;2022-09-06T09:19:28;101550.59;;;18.63;58.74
45763;BME280;37512;52.408;13.356;2022-09-06T09:23:34;101554.63;;;18.83;58.15
45763;BME280;37512;52.408;13.356;2022-09-06T09:27:35;101554.19;;;19.35;57.34
45763;BME280;37512;52.408;13.356;2022-09-06T09:35:51;101537.22;;;19.71;56.59
45763;BME280;37512;52.408;13.356;2022-09-06T09:39:54;101528.41;;;19.51;56.90
45763;BME280;37512;52.408;13.356;2022-09-06T09:44:01;101527.22;;;19.44;57.40
45763;BME280;37512;52.408;13.356;2022-09-06T09:48:18;101515.94;;;19.52;57.50
45763;BME280;37512;52.408;13.356;2022-09-06T09:56:28;101498.28;;;19.33;59.12
45763;BME280;37512;52.408;13.356;2022-09-06T10:04:37;101502.28;;;19.43;58.85
45763;BME280;37512;52.408;13.356;2022-09-06T10:08:45;101500.66;;;19.53;58.37
45763;BME280;37512;52.408;13.356;2022-09-06T10:12:47;101505.88;;;19.51;57.91
45763;BME280;37512;52.408;13.356;2022-09-06T10:16:48;101503.09;;;19.40;58.05
45763;BME280;37512;52.408;13.356;2022-09-06T10:20:58;101500.75;;;19.28;59.20
45763;BME280;37512;52.408;13.356;2022-09-06T10:29:26;101489.03;;;19.40;56.87
45763;BME280;37512;52.408;13.356;2022-09-06T10:33:39;101482.50;;;19.61;57.74
45763;BME280;37512;52.408;13.356;2022-09-06T10:38:10;101472.50;;;19.53;57.64
45763;BME280;37512;52.408;13.356;2022-09-06T10:42:21;101470.34;;;19.85;57.26
45763;BME280;37512;52.408;13.356;2022-09-06T10:46:32;101468.97;;;20.15;55.26
45763;BME280;37512;52.408;13.356;2022-09-06T10:55:15;101471.34;;;20.73;54.59
45763;BME280;37512;52.408;13.356;2022-09-06T10:59:33;101469.38;;;20.66;53.78
45763;BME280;37512;52.408;13.356;2022-09-06T11:03:41;101468.75;;;21.27;54.66
45763;BME280;37512;52.408;13.356;2022-09-06T11:08:07;101482.91;;;21.61;51.72
45763;BME280;37512;52.408;13.356;2022-09-06T11:12:41;101461.56;;;21.57;50.36
45763;BME280;37512;52.408;13.356;2022-09-06T11:16:55;101458.28;;;21.27;51.81
45763;BME280;37512;52.408;13.356;2022-09-06T11:25:44;101451.94;;;21.16;52.35
45763;BME280;37512;52.408;13.356;2022-09-06T11:29:51;101438.66;;;20.79;52.91
45763;BME280;37512;52.408;13.356;2022-09-06T11:38:22;101443.25;;;20.62;53.71
45763;BME280;37512;52.408;13.356;2022-09-06T11:51:07;101441.22;;;20.62;54.96
45763;BME280;37512;52.408;13.356;2022-09-06T11:55:13;101443.53;;;20.75;53.71
45763;BME280;37512;52.408;13.356;2022-09-06T12:12:48;101423.34;;;21.14;52.76
45763;BME280;37512;52.408;13.356;2022-09-06T12:25:18;101420.09;;;21.16;53.71
45763;BME280;37512;52.408;13.356;2022-09-06T12:29:25;101407.59;;;21.17;52.90
45763;BME280;37512;52.408;13.356;2022-09-06T12:33:33;101408.72;;;21.23;53.17
45763;BME280;37512;52.408;13.356;2022-09-06T12:37:48;101403.22;;;21.46;52.77
45763;BME280;37512;52.408;13.356;2022-09-06T12:41:56;101400.69;;;21.83;51.09
45763;BME280;37512;52.408;13.356;2022-09-06T12:45:59;101396.25;;;21.82;51.10
45763;BME280;37512;52.408;13.356;2022-09-06T12:50:16;101405.00;;;22.42;49.57
45763;BME280;37512;52.408;13.356;2022-09-06T12:54:25;101393.88;;;22.54;48.96
45763;BME280;37512;52.408;13.356;2022-09-06T12:58:27;101402.03;;;22.72;48.49
45763;BME280;37512;52.408;13.356;2022-09-06T13:02:37;101390.38;;;22.23;49.48
45763;BME280;37512;52.408;13.356;2022-09-06T13:06:43;101382.78;;;22.17;50.09
45763;BME280;37512;52.408;13.356;2022-09-06T13:10:47;101376.56;;;22.29;50.35
45763;BME280;37512;52.408;13.356;2022-09-06T13:14:54;101370.97;;;22.49;50.51
45763;BME280;37512;52.408;13.356;2022-09-06T13:23:43;101364.25;;;23.79;47.92
45763;BME280;37512;52.408;13.356;2022-09-06T13:27:47;101363.97;;;24.23;46.06
45763;BME280;37512;52.408;13.356;2022-09-06T13:31:53;101358.28;;;24.84;44.60
45763;BME280;37512;52.408;13.356;2022-09-06T13:40:43;101352.59;;;24.84;43.24
45763;BME280;37512;52.408;13.356;2022-09-06T13:45:23;101368.78;;;25.13;43.58
45763;BME280;37512;52.408;13.356;2022-09-06T13:49:26;101356.38;;;24.94;43.40
45763;BME280;37512;52.408;13.356;2022-09-06T13:53:28;101359.25;;;24.32;44.27
45763;BME280;37512;52.408;13.356;2022-09-06T13:57:30;101363.16;;;23.89;45.07
45763;BME280;37512;52.408;13.356;2022-09-06T14:01:32;101361.50;;;23.55;46.09
45763;BME280;37512;52.408;13.356;2022-09-06T14:05:34;101356.13;;;23.05;46.45
45763;BME280;37512;52.408;13.356;2022-09-06T14:09:39;101357.44;;;23.00;47.98
45763;BME280;37512;52.408;13.356;2022-09-06T14:13:40;101360.19;;;23.24;47.21
45763;BME280;37512;52.408;13.356;2022-09-06T14:17:42;101362.94;;;23.27;48.10
45763;BME280;37512;52.408;13.356;2022-09-06T14:21:43;101353.81;;;23.00;47.57
45763;BME280;37512;52.408;13.356;2022-09-06T14:25:45;101345.22;;;22.63;49.45
45763;BME280;37512;52.408;13.356;2022-09-06T14:29:46;101345.75;;;22.34;49.53
45763;BME280;37512;52.408;13.356;2022-09-06T14:33:49;101337.19;;;22.82;48.35
45763;BME280;37512;52.408;13.356;2022-09-06T14:37:50;101326.00;;;23.14;47.93
45763;BME280;37512;52.408;13.356;2022-09-06T14:41:52;101339.59;;;23.92;46.05
45763;BME280;37512;52.408;13.356;2022-09-06T14:45:54;101334.72;;;24.71;44.93
45763;BME280;37512;52.408;13.356;2022-09-06T14:49:59;101333.41;;;25.31;42.85
45763;BME280;37512;52.408;13.356;2022-09-06T14:54:05;101324.31;;;25.49;42.44
45763;BME280;37512;52.408;13.356;2022-09-06T14:58:07;101325.75;;;24.73;43.69
45763;BME280;37512;52.408;13.356;2022-09-06T15:02:09;101324.66;;;25.38;42.56
45763;BME280;37512;52.408;13.356;2022-09-06T15:06:11;101326.34;;;24.51;44.55
45763;BME280;37512;52.408;13.356;2022-09-06T15:10:13;101320.28;;;24.04;45.74
45763;BME280;37512;52.408;13.356;2022-09-06T15:14:20;101328.63;;;23.42;47.07
45763;BME280;37512;52.408;13.356;2022-09-06T15:18:22;101307.25;;;23.57;47.34
45763;BME280;37512;52.408;13.356;2022-09-06T15:22:24;101310.69;;;23.48;47.87
45763;BME280;37512;52.408;13.356;2022-09-06T15:26:25;101300.22;;;23.29;47.79
45763;BME280;37512;52.408;13.356;2022-09-06T15:30:29;101300.81;;;22.60;49.88
45763;BME280;37512;52.408;13.356;2022-09-06T15:34:31;101302.56;;;22.74;49.24
45763;BME280;37512;52.408;13.356;2022-09-06T15:38:39;101284.69;;;22.37;50.09
45763;BME280;37512;52.408;13.356;2022-09-06T15:42:41;101282.31;;;22.36;50.21
45763;BME280;37512;52.408;13.356;2022-09-06T15:46:56;101281.94;;;22.33;50.89
45763;BME280;37512;52.408;13.356;2022-09-06T15:51:01;101289.69;;;21.82;51.95
45763;BME280;37512;52.408;13.356;2022-09-06T15:55:02;101290.19;;;21.77;52.96
45763;BME280;37512;52.408;13.356;2022-09-06T15:59:22;101284.91;;;21.79;52.02
45763;BME280;37512;52.408;13.356;2022-09-06T16:03:24;101285.75;;;21.76;52.32
45763;BME280;37512;52.408;13.356;2022-09-06T16:07:26;101278.75;;;21.61;52.85
45763;BME280;37512;52.408;13.356;2022-09-06T16:11:28;101273.44;;;21.36;53.29
45763;BME280;37512;52.408;13.356;2022-09-06T16:15:30;101276.16;;;21.46;53.70
45763;BME280;37512;52.408;13.356;2022-09-06T16:19:32;101277.59;;;21.27;53.96
45763;BME280;37512;52.408;13.356;2022-09-06T16:23:34;101266.38;;;21.24;53.85
45763;BME280;37512;52.408;13.356;2022-09-06T16:27:36;101273.66;;;21.21;54.38
45763;BME280;37512;52.408;13.356;2022-09-06T16:31:38;101269.94;;;21.01;54.74
45763;BME280;37512;52.408;13.356;2022-09-06T16:35:41;101269.84;;;21.04;54.70
45763;BME280;37512;52.408;13.356;2022-09-06T16:39:43;101277.28;;;20.91;55.71
45763;BME280;37512;52.408;13.356;2022-09-06T16:43:45;101273.38;;;20.81;55.55
45763;BME280;37512;52.408;13.356;2022-09-06T16:47:48;101285.25;;;21.00;54.93
45763;BME280;37512;52.408;13.356;2022-09-06T16:51:49;101283.03;;;20.84;55.45
45763;BME280;37512;52.408;13.356;2022-09-06T16:55:51;101270.19;;;20.79;54.94
45763;BME280;37512;52.408;13.356;2022-09-06T16:59:52;101264.91;;;20.85;55.58
45763;BME280;37512;52.408;13.356;2022-09-06T17:03:55;101260.56;;;20.77;55.48
45763;BME280;37512;52.408;13.356;2022-09-06T17:07:56;101252.31;;;20.59;56.05
45763;BME280;37512;52.408;13.356;2022-09-06T17:11:57;101253.63;;;20.47;56.42
45763;BME280;37512;52.408;13.356;2022-09-06T17:15:59;101254.75;;;20.57;55.86
45763;BME280;37512;52.408;13.356;2022-09-06T17:20:22;101255.56;;;20.57;55.41
45763;BME280;37512;52.408;13.356;2022-09-06T17:24:24;101243.28;;;20.37;56.12
45763;BME280;37512;52.408;13.356;2022-09-06T17:28:27;101250.19;;;20.32;56.56
45763;BME280;37512;52.408;13.356;2022-09-06T17:32:29;101247.69;;;20.38;56.62
45763;BME280;37512;52.408;13.356;2022-09-06T17:36:32;101242.94;;;20.31;56.46
45763;BME280;37512;52.408;13.356;2022-09-06T17:40:34;101248.56;;;20.31;56.98
45763;BME280;37512;52.408;13.356;2022-09-06T17:44:36;101255.25;;;20.10;57.16
45763;BME280;37512;52.408;13.356;2022-09-06T17:48:37;101257.22;;;20.13;55.50
45763;BME280;37512;52.408;13.356;2022-09-06T17:52:39;101262.44;;;20.15;55.23
45763;BME280;37512;52.408;13.356;2022-09-06T17:56:40;101269.25;;;20.17;54.94
45763;BME280;37512;52.408;13.356;2022-09-06T18:00:42;101276.47;;;20.22;54.39
45763;BME280;37512;52.408;13.356;2022-09-06T18:04:43;101270.81;;;20.22;54.33
45763;BME280;37512;52.408;13.356;2022-09-06T18:08:45;101274.03;;;20.20;54.68
45763;BME280;37512;52.408;13.356;2022-09-06T18:12:48;101274.59;;;20.04;54.81
45763;BME280;37512;52.408;13.356;2022-09-06T18:16:50;101285.47;;;20.06;53.88
45763;BME280;37512;52.408;13.356;2022-09-06T18:20:52;101281.09;;;20.01;53.81
45763;BME280;37512;52.408;13.356;2022-09-06T18:24:53;101280.75;;;19.96;52.79
45763;BME280;37512;52.408;13.356;2022-09-06T18:28:58;101282.50;;;19.79;52.63
45763;BME280;37512;52.408;13.356;2022-09-06T18:33:00;101282.47;;;19.82;52.65
45763;BME280;37512;52.408;13.356;2022-09-06T18:37:01;101283.28;;;19.79;52.67
45763;BME280;37512;52.408;13.356;2022-09-06T18:41:06;101268.81;;;19.77;52.43
45763;BME280;37512;52.408;13.356;2022-09-06T18:45:08;101273.31;;;19.71;53.49
45763;BME280;37512;52.408;13.356;2022-09-06T18:49:09;101272.16;;;19.58;53.51
45763;BME280;37512;52.408;13.356;2022-09-06T18:53:13;101280.72;;;19.43;54.50
45763;BME280;37512;52.408;13.356;2022-09-06T18:57:18;101276.66;;;19.48;54.65
45763;BME280;37512;52.408;13.356;2022-09-06T19:01:19;101275.16;;;19.33;55.00
45763;BME280;37512;52.408;13.356;2022-09-06T19:05:22;101277.97;;;19.33;54.78
45763;BME280;37512;52.408;13.356;2022-09-06T19:09:23;101275.44;;;19.49;53.40
45763;BME280;37512;52.408;13.356;2022-09-06T19:13:25;101278.31;;;19.42;53.35
45763;BME280;37512;52.408;13.356;2022-09-06T19:17:26;101277.63;;;19.23;53.12
45763;BME280;37512;52.408;13.356;2022-09-06T19:21:28;101280.84;;;19.22;53.77
45763;BME280;37512;52.408;13.356;2022-09-06T19:25:29;101277.72;;;19.06;54.03
45763;BME280;37512;52.408;13.356;2022-09-06T19:29:31;101281.28;;;19.20;53.99
45763;BME280;37512;52.408;13.356;2022-09-06T19:33:32;101277.22;;;19.25;53.10
45763;BME280;37512;52.408;13.356;2022-09-06T19:37:36;101273.38;;;18.90;53.95
45763;BME280;37512;52.408;13.356;2022-09-06T19:41:40;101270.59;;;18.87;53.84
45763;BME280;37512;52.408;13.356;2022-09-06T19:45:46;101265.34;;;18.92;54.12
45763;BME280;37512;52.408;13.356;2022-09-06T19:49:48;101257.78;;;18.82;54.23
45763;BME280;37512;52.408;13.356;2022-09-06T19:53:51;101257.69;;;18.96;54.12
45763;BME280;37512;52.408;13.356;2022-09-06T19:57:59;101260.97;;;18.77;53.74
45763;BME280;37512;52.408;13.356;2022-09-06T20:02:00;101264.97;;;18.87;53.23
45763;BME280;37512;52.408;13.356;2022-09-06T20:06:04;101267.44;;;18.70;53.76
45763;BME280;37512;52.408;13.356;2022-09-06T20:10:08;101265.84;;;18.62;54.32
45763;BME280;37512;52.408;13.356;2022-09-06T20:14:10;101264.22;;;18.65;55.43
45763;BME280;37512;52.408;13.356;2022-09-06T20:18:11;101265.06;;;18.62;54.71
45763;BME280;37512;52.408;13.356;2022-09-06T20:22:13;101255.03;;;18.53;54.96
45763;BME280;37512;52.408;13.356;2022-09-06T20:26:15;101254.22;;;18.64;54.43
45763;BME280;37512;52.408;13.356;2022-09-06T20:30:18;101258.22;;;18.63;54.26
45763;BME280;37512;52.408;13.356;2022-09-06T20:34:19;101253.88;;;18.40;54.80
45763;BME280;37512;52.408;13.356;2022-09-06T20:38:21;101250.22;;;18.54;54.51
45763;BME280;37512;52.408;13.356;2022-09-06T20:42:23;101248.63;;;18.49;55.38
45763;BME280;37512;52.408;13.356;2022-09-06T20:46:29;101251.03;;;18.54;56.51
45763;BME280;37512;52.408;13.356;2022-09-06T20:50:31;101233.00;;;18.41;56.79
45763;BME280;37512;52.408;13.356;2022-09-06T20:54:32;101234.25;;;18.29;56.85
45763;BME280;37512;52.408;13.356;2022-09-06T20:58:34;101221.03;;;18.19;57.32
45763;BME280;37512;52.408;13.356;2022-09-06T21:02:38;101232.69;;;18.03;57.63
45763;BME280;37512;52.408;13.356;2022-09-06T21:06:39;101219.47;;;18.00;58.03
45763;BME280;37512;52.408;13.356;2022-09-06T21:10:41;101211.81;;;17.97;58.87
45763;BME280;37512;52.408;13.356;2022-09-06T21:14:43;101203.41;;;18.01;59.49
45763;BME280;37512;52.408;13.356;2022-09-06T21:18:49;101209.44;;;17.81;59.39
45763;BME280;37512;52.408;13.356;2022-09-06T21:22:50;101207.03;;;17.97;61.62
45763;BME280;37512;52.408;13.356;2022-09-06T21:26:52;101209.44;;;17.60;60.03
45763;BME280;37512;52.408;13.356;2022-09-06T21:31:08;101203.03;;;17.70;61.21
45763;BME280;37512;52.408;13.356;2022-09-06T21:35:10;101212.25;;;17.49;60.75
45763;BME280;37512;52.408;13.356;2022-09-06T21:39:11;101204.63;;;17.64;60.61
45763;BME280;37512;52.408;13.356;2022-09-06T21:43:13;101201.41;;;17.69;61.30
45763;BME280;37512;52.408;13.356;2022-09-06T21:47:14;101203.44;;;17.50;59.94
45763;BME280;37512;52.408;13.356;2022-09-06T21:51:18;101192.19;;;17.65;60.83
45763;BME280;37512;52.408;13.356;2022-09-06T21:55:20;101181.78;;;17.40;60.84
45763;BME280;37512;52.408;13.356;2022-09-06T21:59:22;101188.19;;;17.48;60.10
45763;BME280;37512;52.408;13.356;2022-09-06T22:03:24;101177.78;;;17.48;60.16
45763;BME280;37512;52.408;13.356;2022-09-06T22:07:26;101163.34;;;17.46;59.48
45763;BME280;37512;52.408;13.356;2022-09-06T22:11:30;101153.31;;;17.31;60.68
45763;BME280;37512;52.408;13.356;2022-09-06T22:15:36;101150.13;;;17.50;59.34
45763;BME280;37512;52.408;13.356;2022-09-06T22:19:37;101152.13;;;17.35;60.16
45763;BME280;37512;52.408;13.356;2022-09-06T22:23:39;101158.53;;;17.18;60.08
45763;BME280;37512;52.408;13.356;2022-09-06T22:27:41;101162.56;;;17.39;59.81
45763;BME280;37512;52.408;13.356;2022-09-06T22:31:42;101156.13;;;17.49;59.37